createdAt,value
2023-04-02T00:01:18.783Z,75.20
2023-04-02T00:04:23.123Z,75.10
2023-04-02T00:07:31.142Z,75.40
2023-04-02T00:10:31.288Z,75.40
2023-04-02T00:13:25.586Z,74.80
2023-04-02T00:16:17.790Z,74.70
2023-04-02T00:19:09.621Z,74.90
2023-04-02T00:21:59.844Z,74.90
2023-04-02T00:24:52.876Z,74.80
2023-04-02T00:27:41.419Z,74.80
2023-04-02T00:30:29.547Z,74.80
2023-04-02T00:33:20.314Z,74.70
2023-04-02T00:36:09.815Z,74.70
2023-04-02T00:39:02.779Z,73.80
2023-04-02T00:41:58.607Z,74.00
2023-04-02T00:44:47.512Z,74.50
2023-04-02T00:47:37.603Z,74.20
2023-04-02T00:50:33.189Z,73.70
2023-04-02T00:53:25.418Z,74.40
2023-04-02T00:56:19.216Z,73.80
2023-04-02T00:59:20.343Z,74.00
2023-04-02T01:02:26.296Z,73.70
2023-04-02T01:05:24.227Z,73.90
2023-04-02T01:08:24.085Z,73.70
2023-04-02T01:11:35.687Z,89.20
2023-04-02T01:14:38.417Z,73.50
2023-04-02T01:17:39.166Z,73.40
2023-04-02T01:21:01.826Z,73.60
2023-04-02T01:24:05.150Z,73.70
2023-04-02T01:26:58.012Z,73.40
2023-04-02T01:29:49.953Z,73.50
2023-04-02T01:32:38.771Z,73.20
2023-04-02T01:35:32.889Z,73.80
2023-04-02T01:38:28.280Z,73.40
2023-04-02T01:41:24.052Z,84.20
2023-04-02T01:44:15.103Z,73.40
2023-04-02T01:47:11.225Z,73.30
2023-04-02T01:50:03.585Z,73.40
2023-04-02T01:52:53.554Z,73.00
2023-04-02T01:55:44.658Z,72.80
2023-04-02T01:58:34.258Z,72.90
2023-04-02T02:01:26.494Z,88.90
2023-04-02T02:04:17.594Z,73.10
2023-04-02T02:07:10.339Z,72.70
2023-04-02T02:09:58.582Z,73.00
2023-04-02T02:12:48.017Z,73.10
2023-04-02T02:15:37.268Z,73.10
2023-04-02T02:18:27.531Z,73.00
2023-04-02T02:21:28.643Z,73.10
2023-04-02T02:24:21.601Z,73.20
2023-04-02T02:27:41.640Z,72.40
2023-04-02T02:30:33.646Z,72.60
2023-04-02T02:33:25.400Z,71.90
2023-04-02T02:36:22.843Z,72.20
2023-04-02T02:39:16.873Z,72.60
2023-04-02T02:42:11.965Z,72.20
2023-04-02T02:45:02.927Z,72.10
2023-04-02T02:47:52.902Z,71.80
2023-04-02T02:50:42.121Z,71.90
2023-04-02T02:53:31.543Z,72.20
2023-04-02T02:56:22.775Z,71.70
2023-04-02T02:59:12.238Z,71.50
2023-04-02T03:02:01.105Z,72.30
2023-04-02T03:04:50.690Z,71.50
2023-04-02T03:07:39.484Z,72.70
2023-04-02T03:10:38.025Z,71.60
2023-04-02T03:13:32.696Z,71.80
2023-04-02T03:16:28.101Z,71.30
2023-04-02T03:19:28.344Z,71.10
2023-04-02T03:22:21.800Z,71.10
2023-04-02T03:25:22.748Z,70.90
2023-04-02T03:28:16.884Z,71.10
2023-04-02T03:31:09.526Z,71.20
2023-04-02T03:34:00.178Z,71.40
2023-04-02T03:36:53.331Z,71.30
2023-04-02T03:39:45.613Z,71.10
2023-04-02T03:42:42.125Z,71.10
2023-04-02T03:45:37.357Z,71.40
2023-04-02T03:48:34.328Z,71.10
2023-04-02T03:51:27.463Z,87.10
2023-04-02T03:54:17.482Z,70.90
2023-04-02T03:57:08.324Z,71.10
2023-04-02T04:00:01.476Z,70.70
2023-04-02T04:02:53.177Z,70.40
2023-04-02T04:05:49.201Z,70.60
2023-04-02T04:08:44.729Z,70.80
2023-04-02T04:11:36.559Z,80.50
2023-04-02T04:14:31.823Z,70.80
2023-04-02T04:17:30.143Z,70.70
2023-04-02T04:20:22.995Z,70.80
2023-04-02T04:23:17.721Z,70.60
2023-04-02T04:26:19.854Z,70.50
2023-04-02T04:29:19.336Z,70.50
2023-04-02T04:32:18.140Z,70.50
2023-04-02T04:35:09.282Z,70.30
2023-04-02T04:38:03.857Z,70.20
2023-04-02T04:40:55.546Z,70.10
2023-04-02T04:43:48.829Z,70.00
2023-04-02T04:46:41.153Z,70.00
2023-04-02T04:49:33.544Z,70.20
2023-04-02T04:52:24.795Z,70.70
2023-04-02T04:55:30.230Z,70.40
2023-04-02T04:58:23.981Z,70.40
2023-04-02T05:01:17.464Z,70.30
2023-04-02T05:04:12.938Z,70.20
2023-04-02T05:07:06.108Z,70.20
2023-04-02T05:09:57.783Z,70.10
2023-04-02T05:12:52.218Z,70.50
2023-04-02T05:15:44.862Z,70.40
2023-04-02T05:18:37.361Z,70.00
2023-04-02T05:21:33.236Z,70.50
2023-04-02T05:24:38.527Z,70.50
2023-04-02T05:27:34.555Z,70.70
2023-04-02T05:30:46.960Z,70.50
2023-04-02T05:33:37.318Z,70.00
2023-04-02T05:36:27.854Z,70.30
2023-04-02T05:39:22.374Z,70.00
2023-04-02T05:42:20.257Z,70.50
2023-04-02T05:45:20.740Z,70.00
2023-04-02T05:48:18.092Z,70.10
2023-04-02T05:51:12.550Z,70.30
2023-04-02T05:54:04.101Z,70.20
2023-04-02T05:56:58.599Z,70.20
2023-04-02T05:59:50.657Z,70.10
2023-04-02T06:02:43.524Z,70.00
2023-04-02T06:05:40.133Z,70.00
2023-04-02T06:08:35.391Z,70.30
2023-04-02T06:11:27.931Z,70.50
2023-04-02T06:14:17.688Z,70.40
2023-04-02T06:17:05.761Z,70.40
2023-04-02T06:19:55.428Z,70.10
2023-04-02T06:22:46.707Z,70.20
2023-04-02T06:25:38.612Z,70.00
2023-04-02T06:28:32.084Z,70.10
2023-04-02T06:31:29.146Z,69.80
2023-04-02T06:34:19.287Z,70.10
2023-04-02T06:37:17.328Z,69.60
2023-04-02T06:40:22.688Z,69.70
2023-04-02T06:43:17.458Z,69.40
2023-04-02T06:46:10.497Z,69.60
2023-04-02T06:49:05.907Z,69.40
2023-04-02T06:51:56.255Z,69.30
2023-04-02T06:54:44.415Z,69.10
2023-04-02T06:57:35.733Z,69.40
2023-04-02T07:00:29.109Z,69.40
2023-04-02T07:03:22.441Z,69.40
2023-04-02T07:06:15.594Z,69.40
2023-04-02T07:09:04.054Z,69.30
2023-04-02T07:11:52.442Z,85.30
2023-04-02T07:14:41.803Z,68.80
2023-04-02T07:17:30.342Z,68.60
2023-04-02T07:20:28.001Z,68.50
2023-04-02T07:23:17.029Z,68.60
2023-04-02T07:26:06.634Z,68.30
2023-04-02T07:28:55.669Z,68.30
2023-04-02T07:31:45.180Z,83.70
2023-04-02T07:34:33.228Z,68.10
2023-04-02T07:37:21.193Z,68.40
2023-04-02T07:40:17.843Z,68.30
2023-04-02T07:43:06.888Z,68.50
2023-04-02T07:45:54.883Z,68.10
2023-04-02T07:48:44.508Z,68.30
2023-04-02T07:54:20.910Z,67.90
2023-04-02T07:57:08.933Z,67.70
2023-04-02T07:59:57.129Z,67.90
2023-04-02T08:02:45.838Z,67.90
2023-04-02T08:05:35.324Z,67.80
2023-04-02T08:08:24.598Z,68.40
2023-04-02T08:11:12.646Z,67.80
2023-04-02T08:14:00.680Z,67.50
2023-04-02T08:16:50.681Z,67.90
2023-04-02T08:19:51.680Z,67.50
2023-04-02T08:22:43.926Z,67.70
2023-04-02T08:25:32.024Z,68.30
2023-04-02T08:28:21.135Z,67.60
2023-04-02T08:31:09.244Z,68.00
2023-04-02T08:33:57.463Z,67.90
2023-04-02T08:36:46.411Z,67.40
2023-04-02T08:39:35.738Z,67.60
2023-04-02T08:42:30.514Z,67.70
2023-04-02T08:45:25.399Z,67.50
2023-04-02T08:48:15.458Z,67.30
2023-04-02T08:51:05.969Z,67.40
2023-04-02T08:53:57.821Z,66.60
2023-04-02T08:56:53.350Z,67.50
2023-04-02T08:59:43.926Z,67.70
2023-04-02T09:02:39.153Z,67.00
2023-04-02T09:05:30.628Z,67.00
2023-04-02T09:08:21.052Z,66.80
2023-04-02T09:11:13.247Z,67.20
2023-04-02T09:14:06.955Z,66.70
2023-04-02T09:16:58.844Z,67.20
2023-04-02T09:19:54.193Z,66.80
2023-04-02T09:22:42.468Z,66.10
2023-04-02T09:25:33.261Z,66.20
2023-04-02T09:28:23.563Z,66.00
2023-04-02T09:31:20.009Z,80.40
2023-04-02T09:34:30.114Z,66.40
2023-04-02T09:37:21.313Z,67.90
2023-04-02T09:40:19.604Z,67.20
2023-04-02T09:43:13.715Z,66.20
2023-04-02T09:46:04.218Z,66.70
2023-04-02T09:48:58.046Z,66.10
2023-04-02T09:51:46.199Z,93.50
2023-04-02T09:54:34.224Z,67.80
2023-04-02T09:57:27.202Z,65.40
2023-04-02T10:00:31.255Z,66.80
2023-04-02T10:03:25.241Z,98.40
2023-04-02T10:06:16.434Z,72.30
2023-04-02T10:09:30.713Z,93.30
2023-04-02T10:12:18.702Z,96.10
2023-04-02T10:15:08.318Z,93.00
2023-04-02T10:18:02.422Z,93.70
2023-04-02T10:20:53.583Z,94.30
2023-04-02T10:23:43.002Z,71.50
2023-04-02T10:26:43.294Z,95.10
2023-04-02T10:30:15.660Z,94.20
2023-04-02T10:33:08.282Z,97.60
2023-04-02T10:36:02.993Z,93.40
2023-04-02T10:38:58.959Z,91.80
2023-04-02T10:41:53.691Z,84.90
2023-04-02T10:44:52.859Z,86.30
2023-04-02T10:47:47.513Z,85.70
2023-04-02T10:50:44.949Z,86.90
2023-04-02T10:53:42.533Z,82.90
2023-04-02T10:56:44.053Z,77.60
2023-04-02T10:59:42.560Z,99.90
2023-04-02T11:02:36.466Z,82.60
2023-04-02T11:05:32.197Z,87.90
2023-04-02T11:08:24.492Z,87.00
2023-04-02T11:11:15.929Z,99.90
2023-04-02T11:14:14.700Z,99.90
2023-04-02T11:28:29.229Z,72.00
2023-04-02T11:31:22.970Z,99.90
2023-04-02T11:34:15.106Z,84.40
2023-04-02T11:37:08.866Z,84.20
2023-04-02T11:39:59.156Z,82.00
2023-04-02T11:45:58.153Z,74.90
2023-04-02T11:51:56.605Z,78.60
2023-04-02T11:55:01.291Z,84.80
2023-04-02T11:57:58.845Z,82.70
2023-04-02T12:01:22.766Z,78.60
2023-04-02T12:04:38.535Z,77.40
2023-04-02T12:07:38.135Z,83.80
2023-04-02T12:10:34.306Z,82.70
2023-04-02T12:13:49.031Z,84.60
2023-04-02T12:19:30.497Z,82.70
2023-04-02T12:22:23.056Z,83.50
2023-04-02T12:25:26.905Z,99.90
2023-04-02T12:28:19.628Z,97.10
2023-04-02T12:31:14.955Z,84.40
2023-04-02T12:36:59.554Z,99.90
2023-04-02T12:39:54.608Z,99.90
2023-04-02T12:45:34.328Z,81.10
2023-04-02T12:51:11.667Z,80.30
2023-04-02T12:54:01.522Z,99.90
2023-04-02T13:02:30.301Z,83.30
2023-04-02T13:05:35.762Z,99.90
2023-04-02T13:08:27.211Z,79.60
2023-04-02T13:11:16.933Z,80.20
2023-04-02T13:14:07.246Z,80.80
2023-04-02T13:16:56.441Z,78.40
2023-04-02T13:25:29.005Z,79.40
2023-04-02T13:28:18.670Z,95.80
2023-04-02T13:31:06.840Z,96.50
2023-04-02T13:33:54.857Z,96.40
2023-04-02T13:36:42.881Z,97.80
2023-04-02T13:45:22.070Z,84.40
2023-04-02T13:48:14.997Z,85.20
2023-04-02T13:53:54.746Z,84.20
2023-04-02T14:02:25.313Z,83.00
2023-04-02T14:05:24.605Z,82.40
2023-04-02T14:08:21.131Z,82.10
2023-04-02T14:11:24.856Z,81.90
2023-04-02T14:14:25.488Z,82.70
2023-04-02T14:17:25.753Z,83.00
2023-04-02T14:20:24.462Z,81.30
2023-04-02T14:23:25.718Z,99.10
2023-04-02T14:26:22.219Z,82.40
2023-04-02T14:29:17.372Z,82.40
2023-04-02T14:32:10.229Z,83.00
2023-04-02T14:35:06.300Z,81.40
2023-04-02T14:38:03.124Z,81.40
2023-04-02T14:40:56.660Z,99.90
2023-04-02T14:43:48.233Z,81.10
2023-04-02T14:46:38.643Z,81.50
2023-04-02T14:49:32.757Z,80.90
2023-04-02T14:52:24.532Z,81.90
2023-04-02T14:55:19.318Z,81.40
2023-04-02T14:58:15.613Z,82.10
2023-04-02T15:01:07.998Z,99.40
2023-04-02T15:04:02.257Z,80.10
2023-04-02T15:06:53.396Z,79.50
2023-04-02T15:09:48.381Z,79.70
2023-04-02T15:12:39.620Z,79.80
2023-04-02T15:15:39.943Z,79.50
2023-04-02T15:21:34.299Z,79.70
2023-04-02T15:24:33.283Z,78.40
2023-04-02T15:27:37.114Z,78.70
2023-04-02T15:30:28.658Z,78.40
2023-04-02T15:33:39.369Z,96.80
2023-04-02T15:36:41.054Z,66.90
2023-04-02T15:39:59.924Z,95.80
2023-04-02T15:42:57.722Z,97.10
2023-04-02T15:46:09.972Z,82.40
2023-04-02T15:49:21.016Z,91.50
2023-04-02T15:52:13.265Z,97.20
2023-04-02T15:55:15.018Z,87.40
2023-04-02T15:58:21.788Z,97.70
2023-04-02T16:01:15.940Z,73.60
2023-04-02T16:04:43.105Z,78.00
2023-04-02T16:07:57.396Z,77.10
2023-04-02T16:13:37.358Z,83.40
2023-04-02T16:16:31.469Z,82.90
2023-04-02T16:19:27.371Z,82.00
2023-04-02T16:22:21.690Z,82.70
2023-04-02T16:25:19.247Z,83.10
2023-04-02T16:28:18.913Z,84.10
2023-04-02T16:31:15.052Z,83.20
2023-04-02T16:34:10.644Z,82.30
2023-04-02T16:37:04.317Z,99.90
2023-04-02T16:39:58.128Z,81.60
2023-04-02T16:42:54.168Z,79.60
2023-04-02T16:45:49.618Z,82.00
2023-04-02T16:48:45.365Z,82.20
2023-04-02T16:51:43.184Z,82.20
2023-04-02T16:54:36.426Z,99.40
2023-04-02T16:57:32.655Z,81.90
2023-04-02T17:00:26.850Z,81.30
2023-04-02T17:03:29.933Z,80.80
2023-04-02T17:06:30.961Z,81.30
2023-04-02T17:09:22.031Z,80.70
2023-04-02T17:12:17.330Z,81.10
2023-04-02T17:15:24.905Z,82.30
2023-04-02T17:18:19.834Z,81.70
2023-04-02T17:21:11.295Z,81.80
2023-04-02T17:24:07.116Z,82.30
2023-04-02T17:27:00.699Z,82.20
2023-04-02T17:29:53.563Z,81.90
2023-04-02T17:35:40.910Z,75.20
2023-04-02T17:38:35.051Z,81.80
2023-04-02T17:41:35.173Z,82.80
2023-04-02T17:44:42.232Z,76.70
2023-04-02T17:47:41.541Z,82.30
2023-04-02T17:50:38.004Z,82.40
2023-04-02T17:53:37.238Z,82.70
2023-04-02T17:56:40.044Z,82.50
2023-04-02T17:59:45.384Z,77.40
2023-04-02T18:02:45.534Z,82.60
2023-04-02T18:05:39.858Z,82.90
2023-04-02T18:08:36.658Z,83.00
2023-04-02T18:11:34.623Z,82.90
2023-04-02T18:14:35.046Z,83.00
2023-04-02T18:17:30.484Z,82.00
2023-04-02T18:20:28.097Z,82.70
2023-04-02T18:23:25.476Z,82.20
2023-04-02T18:26:19.534Z,81.40
2023-04-02T18:29:22.980Z,81.90
2023-04-02T18:32:33.677Z,81.00
2023-04-02T18:35:28.040Z,82.00
2023-04-02T18:38:28.757Z,76.40
2023-04-02T18:41:28.289Z,81.30
2023-04-02T18:44:31.255Z,81.90
2023-04-02T18:47:26.278Z,81.70
2023-04-02T18:50:18.839Z,82.40
2023-04-02T18:53:12.640Z,82.40
2023-04-02T18:56:05.335Z,82.40
2023-04-02T18:58:59.254Z,82.10
2023-04-02T19:01:52.050Z,81.50
2023-04-02T19:04:43.758Z,78.70
2023-04-02T19:07:36.735Z,79.70
2023-04-02T19:10:30.522Z,82.20
2023-04-02T19:13:20.557Z,82.20
2023-04-02T19:16:28.992Z,81.80
2023-04-02T19:19:21.550Z,82.30
2023-04-02T19:22:17.517Z,99.90
2023-04-02T19:25:21.798Z,97.40
2023-04-02T19:28:17.916Z,98.00
2023-04-02T19:31:15.492Z,77.60
2023-04-02T19:34:16.368Z,80.70
2023-04-02T19:37:12.553Z,80.50
2023-04-02T19:40:32.656Z,75.70
2023-04-02T19:49:04.367Z,79.60
2023-04-02T19:54:43.200Z,79.00
2023-04-02T20:00:21.225Z,80.10
2023-04-02T20:11:38.980Z,81.70
2023-04-02T20:17:15.414Z,99.20
2023-04-02T20:20:04.368Z,99.50
2023-04-02T20:25:46.287Z,81.20
2023-04-02T20:28:36.189Z,81.60
2023-04-02T20:39:49.939Z,99.20
2023-04-02T20:45:29.237Z,81.40
2023-04-02T20:51:08.190Z,79.60
2023-04-02T21:02:23.410Z,81.70
2023-04-02T21:13:38.044Z,80.80
2023-04-02T21:16:29.210Z,80.90
2023-04-02T21:19:18.523Z,81.20
2023-04-02T21:27:43.410Z,99.00
2023-04-02T21:36:13.528Z,81.90
2023-04-02T21:39:03.461Z,81.70
2023-04-02T21:41:53.327Z,81.30
2023-04-02T21:53:08.180Z,82.10
2023-04-02T21:56:01.985Z,80.80
2023-04-02T22:01:41.225Z,82.10
2023-04-02T22:10:09.223Z,82.20
2023-04-02T22:24:14.552Z,81.60
2023-04-02T22:27:03.944Z,81.60
2023-04-02T22:41:09.549Z,81.20
2023-04-02T22:44:00.340Z,80.10
2023-04-02T22:55:15.100Z,81.00
2023-04-02T23:00:52.828Z,82.00
2023-04-02T23:17:47.054Z,82.30
2023-04-02T23:26:14.515Z,81.80
2023-04-02T23:34:41.044Z,81.00
2023-04-02T23:40:17.831Z,98.20
2023-04-02T23:51:34.149Z,68.90
